Time;durP1;ratioP1;P1;durP2;ratioP2;P2;SDS_P1;SDS_P2;PMS_P1;PMS_P2;Temp;Humidity;BMP_temperature;BMP_pressure;BME280_temperature;BME280_humidity;BME280_pressure;Samples;Min_cycle;Max_cycle;Signal;HPM_P1;HPM_P2
2022/11/09 00:02:22;;;;;;;6.55;2.55;;;13.00;99.90;;;;;;4971238;28;20054;-74
2022/11/09 00:04:48;;;;;;;6.35;2.40;;;12.90;99.90;;;;;;4985899;28;20051;-74
2022/11/09 00:07:14;;;;;;;6.55;2.30;;;12.90;99.90;;;;;;4938758;29;20051;-74
2022/11/09 00:09:40;;;;;;;7.35;2.60;;;12.90;99.90;;;;;;4954362;29;20058;-74
2022/11/09 00:12:06;;;;;;;6.95;2.38;;;12.90;99.90;;;;;;4938354;29;20047;-74
2022/11/09 00:14:32;;;;;;;8.43;2.70;;;12.80;99.90;;;;;;4968730;28;20050;-73
2022/11/09 00:16:58;;;;;;;7.63;2.70;;;12.80;99.90;;;;;;4974005;28;20483;-74
2022/11/09 00:19:25;;;;;;;7.47;2.67;;;12.80;99.90;;;;;;4961323;28;20063;-74
2022/11/09 00:21:50;;;;;;;6.78;2.50;;;12.70;99.90;;;;;;4968085;28;20051;-74
2022/11/09 00:24:16;;;;;;;7.15;2.47;;;12.70;99.90;;;;;;4955859;28;20386;-73
2022/11/09 00:26:42;;;;;;;9.10;2.53;;;12.70;99.90;;;;;;4954016;28;20051;-74
2022/11/09 00:29:08;;;;;;;7.00;2.53;;;12.80;99.90;;;;;;4954264;28;20428;-74
2022/11/09 00:31:33;;;;;;;10.27;2.67;;;12.70;99.90;;;;;;4954205;28;20053;-74
2022/11/09 00:33:59;;;;;;;6.30;2.40;;;12.70;99.90;;;;;;4966072;28;20494;-73
2022/11/09 00:36:27;;;;;;;7.60;2.40;;;12.70;99.90;;;;;;4953853;28;20086;-75
2022/11/09 00:38:55;;;;;;;8.43;2.80;;;12.70;99.90;;;;;;4969756;28;20051;-73
2022/11/09 00:41:21;;;;;;;8.73;2.78;;;12.70;99.90;;;;;;4954574;28;20051;-74
2022/11/09 00:43:48;;;;;;;7.72;2.53;;;12.80;99.90;;;;;;4954011;28;20066;-74
2022/11/09 00:46:14;;;;;;;9.52;2.35;;;12.80;99.90;;;;;;4954315;28;20035;-74
2022/11/09 00:48:40;;;;;;;7.78;2.70;;;12.90;99.90;;;;;;4953170;28;20059;-74
2022/11/09 00:51:06;;;;;;;7.13;2.60;;;12.80;99.90;;;;;;4954052;28;20105;-74
2022/11/09 00:53:32;;;;;;;8.52;2.70;;;12.80;99.90;;;;;;4968078;28;20483;-74
2022/11/09 00:56:03;;;;;;;6.75;2.50;;;12.80;99.90;;;;;;4974713;28;20073;-74
2022/11/09 00:58:30;;;;;;;7.80;2.58;;;12.90;99.90;;;;;;4959543;28;20051;-74
2022/11/09 01:00:58;;;;;;;6.38;2.35;;;12.90;99.90;;;;;;4924691;29;20412;-74
2022/11/09 01:03:25;;;;;;;7.70;2.75;;;12.90;99.90;;;;;;4934264;29;20051;-73
2022/11/09 01:05:51;;;;;;;7.13;2.42;;;12.90;99.90;;;;;;4968240;28;20055;-73
2022/11/09 01:08:17;;;;;;;6.55;2.53;;;12.90;99.90;;;;;;4955575;28;20055;-73
2022/11/09 01:10:46;;;;;;;7.32;2.50;;;12.90;99.90;;;;;;4953558;28;20051;-74
2022/11/09 01:13:13;;;;;;;7.78;2.60;;;13.00;99.90;;;;;;4953786;28;20055;-74
2022/11/09 01:15:45;;;;;;;8.45;2.78;;;13.00;99.90;;;;;;4955096;28;20075;-74
2022/11/09 01:18:11;;;;;;;7.57;2.50;;;13.00;99.90;;;;;;4943253;28;20051;-74
2022/11/09 01:20:42;;;;;;;8.43;2.35;;;13.10;99.90;;;;;;4955243;28;20132;-73
2022/11/09 01:23:09;;;;;;;8.52;2.65;;;13.10;99.90;;;;;;4969709;28;20073;-74
2022/11/09 01:25:34;;;;;;;7.65;2.50;;;13.10;99.90;;;;;;4955997;28;20083;-74
2022/11/09 01:28:01;;;;;;;7.88;2.30;;;13.00;99.90;;;;;;4957862;28;20079;-74
2022/11/09 01:30:27;;;;;;;7.97;2.30;;;13.10;99.90;;;;;;4940949;28;20058;-75
2022/11/09 01:32:52;;;;;;;12.40;2.80;;;13.10;99.90;;;;;;4957577;28;20531;-75
2022/11/09 01:35:18;;;;;;;7.57;2.45;;;13.00;99.90;;;;;;4971905;28;20139;-73
2022/11/09 01:37:44;;;;;;;7.95;2.58;;;13.00;99.90;;;;;;4985952;28;20053;-73
2022/11/09 01:40:11;;;;;;;7.78;2.33;;;12.90;99.90;;;;;;4962450;28;20475;-74
2022/11/09 01:42:37;;;;;;;7.75;2.60;;;12.90;99.90;;;;;;4966510;28;20081;-74
2022/11/09 01:45:27;;;;;;;9.48;2.50;;;12.90;99.90;;;;;;4959439;28;20450;-74
2022/11/09 01:48:03;;;;;;;8.55;2.40;;;12.90;99.90;;;;;;4973273;28;20059;-75
2022/11/09 01:50:39;;;;;;;7.57;2.28;;;12.90;99.90;;;;;;4970683;28;20047;-74
2022/11/09 01:53:10;;;;;;;8.63;3.00;;;12.90;99.90;;;;;;4958714;28;20086;-73
2022/11/09 01:55:36;;;;;;;9.80;2.50;;;12.90;99.90;;;;;;4956866;28;20043;-73
2022/11/09 01:58:27;;;;;;;7.18;2.22;;;12.80;99.90;;;;;;4982860;28;20113;-74
2022/11/09 02:00:55;;;;;;;11.30;2.60;;;12.80;99.90;;;;;;4960077;28;20077;-74
2022/11/09 02:03:31;;;;;;;9.15;2.67;;;12.80;99.90;;;;;;4968672;28;20403;-74
2022/11/09 02:06:00;;;;;;;7.18;2.40;;;12.70;99.90;;;;;;4973054;28;20524;-74
2022/11/09 02:08:26;;;;;;;9.23;2.80;;;12.70;99.90;;;;;;4956943;28;20054;-74
2022/11/09 02:11:00;;;;;;;7.90;2.30;;;12.70;99.90;;;;;;4974442;28;20050;-74
2022/11/09 02:13:28;;;;;;;9.45;2.70;;;12.70;99.90;;;;;;4976233;28;20046;-74
2022/11/09 02:15:54;;;;;;;9.88;2.50;;;12.60;99.90;;;;;;4962446;28;20058;-74
2022/11/09 02:18:20;;;;;;;9.07;2.50;;;12.60;99.90;;;;;;4959373;28;20057;-74
2022/11/09 02:20:54;;;;;;;9.48;2.45;;;12.60;99.90;;;;;;4973483;28;20376;-74
2022/11/09 02:23:21;;;;;;;8.02;2.65;;;12.60;99.90;;;;;;4956066;28;20118;-73
2022/11/09 02:25:57;;;;;;;8.75;2.50;;;12.60;99.90;;;;;;4970942;28;20055;-74
2022/11/09 02:28:25;;;;;;;7.43;2.20;;;12.50;99.90;;;;;;4954791;28;20054;-73
2022/11/09 02:30:53;;;;;;;10.23;2.72;;;12.50;99.90;;;;;;4975850;28;20046;-73
2022/11/09 02:33:19;;;;;;;9.73;2.40;;;12.50;99.90;;;;;;4961106;28;20054;-73
2022/11/09 02:35:45;;;;;;;9.43;2.50;;;12.40;99.90;;;;;;4955683;28;20142;-74
2022/11/09 02:38:13;;;;;;;10.45;2.47;;;12.40;99.90;;;;;;4962403;28;20083;-74
2022/11/09 02:40:41;;;;;;;9.10;2.45;;;12.40;99.90;;;;;;4969722;28;20577;-74
2022/11/09 02:43:09;;;;;;;8.77;2.40;;;12.40;99.90;;;;;;4975752;28;20043;-74
2022/11/09 02:45:35;;;;;;;9.35;2.45;;;12.40;99.90;;;;;;4961819;28;20118;-74
2022/11/09 02:48:01;;;;;;;8.90;2.40;;;12.40;99.90;;;;;;4974914;28;20069;-73
2022/11/09 02:50:27;;;;;;;8.75;2.55;;;12.40;99.90;;;;;;4959207;28;20046;-74
2022/11/09 02:52:53;;;;;;;9.32;2.42;;;12.30;99.90;;;;;;4959154;28;20082;-73
2022/11/09 02:55:18;;;;;;;7.22;2.33;;;12.30;99.90;;;;;;4975486;28;20042;-74
2022/11/09 02:57:44;;;;;;;10.32;2.42;;;12.30;99.90;;;;;;4969790;28;20549;-74
2022/11/09 03:00:11;;;;;;;8.25;2.35;;;12.30;99.90;;;;;;4955556;28;20062;-74
2022/11/09 03:02:36;;;;;;;10.38;2.72;;;12.20;99.90;;;;;;4955592;29;20050;-73
2022/11/09 03:05:03;;;;;;;10.43;2.42;;;12.20;99.90;;;;;;4946010;29;20507;-74
2022/11/09 03:07:29;;;;;;;9.48;2.28;;;12.20;99.90;;;;;;4935888;28;20051;-74
2022/11/09 03:09:55;;;;;;;10.23;2.58;;;12.20;99.90;;;;;;4955535;28;20542;-74
2022/11/09 03:12:30;;;;;;;11.88;2.40;;;12.10;99.90;;;;;;4956022;29;20043;-74
2022/11/09 03:14:59;;;;;;;10.18;2.22;;;12.10;99.90;;;;;;4962141;28;20057;-74
2022/11/09 03:17:26;;;;;;;9.70;2.47;;;12.10;99.90;;;;;;4975320;28;20092;-73
2022/11/09 03:19:52;;;;;;;10.10;2.28;;;12.10;99.90;;;;;;4973956;28;20059;-74
2022/11/09 03:22:18;;;;;;;9.55;2.30;;;12.10;99.90;;;;;;4979526;28;20491;-73
2022/11/09 03:24:43;;;;;;;10.43;2.40;;;12.10;99.90;;;;;;4955176;28;20074;-74
2022/11/09 03:27:09;;;;;;;11.27;2.47;;;12.00;99.90;;;;;;4965941;28;20053;-74
2022/11/09 03:29:35;;;;;;;8.73;2.50;;;12.00;99.90;;;;;;4956672;28;20497;-74
2022/11/09 03:32:01;;;;;;;9.77;2.30;;;12.00;99.90;;;;;;4963735;28;20577;-74
2022/11/09 03:34:27;;;;;;;9.93;2.40;;;12.00;99.90;;;;;;4958137;28;20122;-74
2022/11/09 03:36:52;;;;;;;10.15;2.70;;;12.00;99.90;;;;;;4956591;28;20183;-74
2022/11/09 03:39:18;;;;;;;10.32;2.78;;;11.90;99.90;;;;;;4954919;28;20055;-73
2022/11/09 03:41:44;;;;;;;10.57;2.60;;;11.90;99.90;;;;;;4956632;28;20121;-73
2022/11/09 03:44:09;;;;;;;11.98;2.72;;;11.90;99.90;;;;;;4956822;28;20543;-74
2022/11/09 03:46:35;;;;;;;8.30;2.58;;;11.90;99.90;;;;;;4971771;28;20047;-75
2022/11/09 03:49:01;;;;;;;10.07;2.40;;;12.00;99.90;;;;;;4954297;28;20063;-74
2022/11/09 03:51:26;;;;;;;9.20;2.55;;;11.90;99.90;;;;;;4987027;28;20055;-74
2022/11/09 03:53:52;;;;;;;9.35;2.75;;;11.90;99.90;;;;;;4938686;29;20086;-73
2022/11/09 03:56:18;;;;;;;9.57;2.30;;;11.90;99.90;;;;;;4971321;28;20519;-73
2022/11/09 03:58:44;;;;;;;9.18;2.60;;;11.90;99.90;;;;;;4957658;28;20043;-74
2022/11/09 04:01:09;;;;;;;9.60;2.58;;;11.90;99.90;;;;;;4938964;29;20130;-74
2022/11/09 04:03:36;;;;;;;7.43;2.47;;;11.90;99.90;;;;;;4957768;28;20051;-74
2022/11/09 04:06:02;;;;;;;9.07;2.67;;;11.90;99.90;;;;;;4954756;28;20054;-73
2022/11/09 04:08:27;;;;;;;8.32;2.50;;;11.90;99.90;;;;;;4954127;28;20047;-73
2022/11/09 04:10:53;;;;;;;7.65;2.25;;;11.90;99.90;;;;;;4957383;28;20055;-73
2022/11/09 04:13:19;;;;;;;9.80;2.42;;;11.90;99.90;;;;;;4956097;28;20050;-73
2022/11/09 04:15:45;;;;;;;9.40;2.58;;;11.90;99.90;;;;;;4957051;28;20043;-74
2022/11/09 04:18:13;;;;;;;7.63;2.28;;;11.80;99.90;;;;;;4918288;29;20055;-74
2022/11/09 04:20:39;;;;;;;9.27;2.53;;;11.90;99.90;;;;;;4955471;28;20062;-74
2022/11/09 04:23:06;;;;;;;9.23;2.70;;;11.90;99.90;;;;;;4956055;28;20058;-74
2022/11/09 04:25:33;;;;;;;8.93;2.78;;;11.90;99.90;;;;;;4972506;28;20074;-74
2022/11/09 04:28:00;;;;;;;9.50;2.50;;;11.90;99.90;;;;;;4955056;28;20055;-73
2022/11/09 04:30:27;;;;;;;8.07;2.58;;;11.90;99.90;;;;;;4956082;28;20082;-74
2022/11/09 04:32:54;;;;;;;10.55;2.72;;;12.00;99.90;;;;;;4965391;28;20082;-75
2022/11/09 04:35:20;;;;;;;9.52;2.45;;;11.50;99.90;;;;;;4938150;29;20058;-74
2022/11/09 04:37:57;;;;;;;6.85;2.20;;;12.00;99.90;;;;;;4954142;28;20047;-75
2022/11/09 04:40:24;;;;;;;12.02;2.97;;;12.00;99.90;;;;;;4977100;28;20058;-73
2022/11/09 04:42:51;;;;;;;9.55;2.80;;;12.10;99.90;;;;;;4958756;28;20055;-75
2022/11/09 04:45:17;;;;;;;9.40;2.55;;;12.10;99.90;;;;;;4970162;28;20043;-73
2022/11/09 04:47:42;;;;;;;9.88;2.70;;;12.00;99.90;;;;;;4954171;28;20043;-74
2022/11/09 04:50:08;;;;;;;8.07;2.70;;;12.10;99.90;;;;;;4967878;28;20046;-73
2022/11/09 04:52:34;;;;;;;9.45;2.80;;;12.10;99.90;;;;;;4971680;28;20054;-73
2022/11/09 04:55:00;;;;;;;8.73;2.53;;;12.00;99.90;;;;;;4957720;28;20093;-74
2022/11/09 04:57:26;;;;;;;8.90;2.47;;;12.00;99.90;;;;;;4950821;28;20050;-73
2022/11/09 04:59:52;;;;;;;8.07;2.65;;;12.10;99.90;;;;;;4986741;28;20058;-73
2022/11/09 05:02:18;;;;;;;8.43;2.33;;;12.10;99.90;;;;;;4953422;28;20055;-74
2022/11/09 05:04:43;;;;;;;10.63;2.90;;;12.00;99.90;;;;;;4964240;28;20055;-75
2022/11/09 05:07:09;;;;;;;9.93;2.88;;;12.00;99.90;;;;;;4957859;28;20502;-73
2022/11/09 05:09:35;;;;;;;10.50;2.75;;;12.00;99.90;;;;;;4962600;28;20047;-74
2022/11/09 05:12:01;;;;;;;9.43;2.50;;;11.90;99.90;;;;;;4954186;28;20532;-74
2022/11/09 05:14:26;;;;;;;10.30;2.78;;;12.00;99.90;;;;;;4964653;28;20495;-73
2022/11/09 05:16:52;;;;;;;7.55;2.35;;;11.90;99.90;;;;;;4965646;28;20050;-74
2022/11/09 05:19:18;;;;;;;8.55;2.53;;;11.90;99.90;;;;;;4952472;28;20118;-74
2022/11/09 05:21:43;;;;;;;9.98;2.58;;;11.90;99.90;;;;;;4941061;29;20060;-74
2022/11/09 05:24:09;;;;;;;9.85;2.72;;;11.90;99.90;;;;;;4968337;28;20074;-73
2022/11/09 05:26:37;;;;;;;10.30;2.83;;;11.90;99.90;;;;;;4962980;28;20442;-73
2022/11/09 05:29:09;;;;;;;10.55;2.60;;;11.90;99.90;;;;;;4954688;28;20054;-73
2022/11/09 05:31:36;;;;;;;10.60;2.80;;;11.90;99.90;;;;;;4962917;28;20073;-74
2022/11/09 05:34:03;;;;;;;11.27;2.80;;;11.90;99.90;;;;;;4960656;28;20133;-73
2022/11/09 05:36:29;;;;;;;8.88;2.78;;;11.90;99.90;;;;;;4957383;28;20472;-74
2022/11/09 05:38:56;;;;;;;9.80;2.80;;;11.90;99.90;;;;;;4973003;28;20054;-74
2022/11/09 05:41:22;;;;;;;9.00;2.65;;;11.90;99.90;;;;;;4957091;28;20082;-74
2022/11/09 05:43:48;;;;;;;9.35;2.88;;;11.80;99.90;;;;;;4964062;28;20078;-73
2022/11/09 05:46:15;;;;;;;8.73;2.60;;;11.80;99.90;;;;;;4954189;28;20086;-74
2022/11/09 05:48:41;;;;;;;7.72;2.50;;;11.80;99.90;;;;;;4950115;29;20055;-74
2022/11/09 05:51:09;;;;;;;10.13;2.72;;;11.80;99.90;;;;;;4966231;28;20098;-74
2022/11/09 05:53:35;;;;;;;10.57;2.50;;;11.80;99.90;;;;;;4958673;28;20047;-73
2022/11/09 05:56:02;;;;;;;7.57;2.30;;;11.80;99.90;;;;;;4956808;28;20053;-73
2022/11/09 05:58:28;;;;;;;9.18;2.50;;;11.90;99.90;;;;;;4962097;28;20518;-73
2022/11/09 06:00:54;;;;;;;8.48;2.55;;;11.90;99.90;;;;;;4963528;28;20096;-73
2022/11/09 06:03:19;;;;;;;9.32;2.40;;;11.90;99.90;;;;;;4957237;28;20055;-74
2022/11/09 06:05:46;;;;;;;10.48;2.50;;;11.90;99.90;;;;;;4985442;28;20491;-74
2022/11/09 06:08:14;;;;;;;10.07;2.42;;;11.80;99.90;;;;;;4937386;28;20419;-75
2022/11/09 06:10:40;;;;;;;9.77;2.55;;;11.80;99.90;;;;;;4958876;28;20051;-73
2022/11/09 06:13:06;;;;;;;9.68;2.58;;;11.80;99.90;;;;;;4967286;28;20129;-74
2022/11/09 06:15:32;;;;;;;12.10;2.67;;;11.80;99.90;;;;;;4964190;28;20174;-74
2022/11/09 06:17:58;;;;;;;11.52;2.50;;;11.80;99.90;;;;;;4957182;28;20054;-74
2022/11/09 06:20:26;;;;;;;11.75;2.60;;;11.70;99.90;;;;;;4965357;28;20066;-77
2022/11/09 06:22:56;;;;;;;10.90;2.72;;;11.70;99.90;;;;;;4959290;28;20059;-73
2022/11/09 06:25:22;;;;;;;11.05;2.35;;;11.60;99.90;;;;;;4926416;29;20096;-74
2022/11/09 06:27:49;;;;;;;9.60;2.60;;;11.70;99.90;;;;;;4956533;29;20086;-73
2022/11/09 06:30:15;;;;;;;9.98;2.60;;;11.60;99.90;;;;;;4956432;29;20146;-73
2022/11/09 06:32:41;;;;;;;9.48;2.67;;;11.60;99.90;;;;;;4950033;28;20087;-73
2022/11/09 06:35:07;;;;;;;13.80;2.40;;;11.60;99.90;;;;;;4956550;28;20055;-74
2022/11/09 06:37:33;;;;;;;9.48;2.47;;;11.60;99.90;;;;;;4943828;29;20083;-73
2022/11/09 06:39:58;;;;;;;11.40;2.60;;;11.60;99.90;;;;;;4947012;28;20126;-74
2022/11/09 06:42:24;;;;;;;9.13;2.50;;;11.60;99.90;;;;;;4966640;28;20043;-74
2022/11/09 06:44:50;;;;;;;11.38;2.40;;;11.50;99.90;;;;;;4944337;28;20497;-73
2022/11/09 06:47:15;;;;;;;11.48;2.63;;;11.50;99.90;;;;;;4945118;28;20055;-74
2022/11/09 06:49:41;;;;;;;9.40;2.50;;;11.50;99.90;;;;;;4962724;28;20047;-73
2022/11/09 06:52:07;;;;;;;10.63;2.60;;;11.40;99.90;;;;;;4938209;28;20087;-74
2022/11/09 06:54:33;;;;;;;9.27;2.60;;;11.40;99.90;;;;;;4954616;28;20441;-74
2022/11/09 06:56:59;;;;;;;10.82;2.25;;;11.40;99.90;;;;;;4957883;28;20044;-74
2022/11/09 06:59:25;;;;;;;10.98;2.50;;;11.40;99.90;;;;;;4953794;28;20062;-74
2022/11/09 07:01:51;;;;;;;13.23;2.83;;;11.40;99.90;;;;;;4941853;29;20054;-73
2022/11/09 07:04:16;;;;;;;10.25;2.30;;;11.50;99.90;;;;;;4986407;28;20047;-74
2022/11/09 07:06:42;;;;;;;10.32;2.65;;;11.40;99.90;;;;;;4942518;28;20491;-74
2022/11/09 07:09:09;;;;;;;12.50;2.80;;;11.50;99.90;;;;;;4953419;29;20047;-74
2022/11/09 07:11:35;;;;;;;8.85;2.55;;;11.40;99.90;;;;;;4958470;28;20482;-73
2022/11/09 07:14:01;;;;;;;13.60;3.15;;;11.40;99.90;;;;;;4942642;28;20575;-75
2022/11/09 07:16:28;;;;;;;12.02;2.50;;;11.40;99.90;;;;;;4967871;28;20110;-74
2022/11/09 07:18:54;;;;;;;9.13;2.47;;;11.40;99.90;;;;;;4977108;28;20058;-74
2022/11/09 07:21:20;;;;;;;12.77;2.70;;;11.40;99.90;;;;;;4951986;28;20051;-74
2022/11/09 07:23:48;;;;;;;11.40;2.75;;;11.40;99.90;;;;;;4961445;28;20510;-74
2022/11/09 07:26:15;;;;;;;11.90;2.90;;;11.40;99.90;;;;;;4975248;28;20051;-73
2022/11/09 07:28:41;;;;;;;10.35;2.40;;;11.40;99.90;;;;;;4954357;28;20054;-73
2022/11/09 07:31:07;;;;;;;12.10;2.67;;;11.40;99.90;;;;;;4953418;29;20051;-74
2022/11/09 07:33:33;;;;;;;11.90;2.60;;;11.50;99.90;;;;;;4937766;29;20054;-73
2022/11/09 07:36:03;;;;;;;10.13;2.95;;;11.50;99.90;;;;;;4949080;29;20051;-74
2022/11/09 07:38:30;;;;;;;11.18;2.80;;;11.50;99.90;;;;;;4953049;29;20402;-73
2022/11/09 07:41:00;;;;;;;12.18;3.05;;;11.50;99.90;;;;;;4955221;28;20086;-73
2022/11/09 07:43:26;;;;;;;11.02;2.70;;;11.60;99.90;;;;;;4953191;28;20050;-73
2022/11/09 07:45:52;;;;;;;11.23;2.80;;;11.60;99.90;;;;;;4952790;29;20118;-73
2022/11/09 07:48:18;;;;;;;10.63;2.85;;;11.70;99.90;;;;;;4952194;29;20479;-73
2022/11/09 07:50:44;;;;;;;11.63;2.70;;;11.70;99.90;;;;;;4953207;28;20467;-74
2022/11/09 07:53:13;;;;;;;11.82;2.65;;;11.80;99.90;;;;;;4953942;28;20415;-73
2022/11/09 07:55:39;;;;;;;11.68;3.10;;;11.80;99.90;;;;;;4952416;29;20114;-73
2022/11/09 07:58:07;;;;;;;12.85;2.92;;;11.90;99.90;;;;;;4952920;29;20130;-74
2022/11/09 08:00:34;;;;;;;11.60;3.17;;;11.90;99.90;;;;;;4964333;28;20061;-73
2022/11/09 08:03:00;;;;;;;11.48;2.75;;;11.90;99.90;;;;;;4954071;28;20047;-74
2022/11/09 08:05:26;;;;;;;13.82;3.13;;;12.00;99.90;;;;;;4952768;28;20110;-73
2022/11/09 08:08:00;;;;;;;11.20;3.17;;;12.00;99.90;;;;;;4959353;28;20060;-76
2022/11/09 08:10:27;;;;;;;8.73;2.58;;;12.00;99.90;;;;;;4946852;29;20114;-74
2022/11/09 08:12:58;;;;;;;13.85;3.20;;;12.00;99.90;;;;;;4965624;28;20063;-74
2022/11/09 08:15:24;;;;;;;13.90;2.67;;;12.00;99.90;;;;;;4962132;28;20423;-75
2022/11/09 08:17:50;;;;;;;12.60;3.13;;;12.00;99.90;;;;;;4952542;28;20082;-75
2022/11/09 08:20:16;;;;;;;11.52;2.78;;;12.10;99.90;;;;;;4865126;28;20059;-74
2022/11/09 08:22:43;;;;;;;11.13;2.53;;;12.10;99.90;;;;;;4927434;29;20089;-74
2022/11/09 08:25:10;;;;;;;10.85;3.15;;;12.20;99.90;;;;;;4951109;28;20487;-74
2022/11/09 08:27:39;;;;;;;12.48;3.05;;;12.30;99.90;;;;;;4952629;28;20039;-74
2022/11/09 08:30:15;;;;;;;12.52;3.00;;;12.30;99.90;;;;;;4956680;28;20063;-74
2022/11/09 08:32:42;;;;;;;12.00;2.90;;;12.40;99.90;;;;;;4949836;28;20122;-75
2022/11/09 08:35:09;;;;;;;12.57;2.97;;;12.40;99.90;;;;;;4949867;29;20087;-74
2022/11/09 08:37:38;;;;;;;13.48;3.05;;;12.50;99.90;;;;;;4951455;29;20077;-74
2022/11/09 08:40:05;;;;;;;12.27;2.97;;;12.50;99.90;;;;;;4951807;29;20051;-73
2022/11/09 08:42:32;;;;;;;11.75;2.90;;;12.50;99.90;;;;;;4951666;29;20126;-74
2022/11/09 08:44:57;;;;;;;14.05;3.05;;;12.70;99.90;;;;;;4952149;28;20122;-74
2022/11/09 08:47:23;;;;;;;11.32;3.10;;;12.70;99.90;;;;;;4922144;29;20138;-75
2022/11/09 08:49:49;;;;;;;16.02;3.00;;;12.70;99.90;;;;;;4930568;29;20054;-74
2022/11/09 08:52:15;;;;;;;12.25;2.92;;;12.80;99.90;;;;;;4951760;29;20459;-73
2022/11/09 08:54:41;;;;;;;14.60;2.90;;;12.80;99.90;;;;;;4949736;28;20492;-73
2022/11/09 08:57:07;;;;;;;13.43;3.50;;;12.80;99.90;;;;;;4951622;28;20051;-73
2022/11/09 08:59:33;;;;;;;11.50;2.80;;;12.80;99.90;;;;;;4951453;28;20106;-74
2022/11/09 09:01:59;;;;;;;10.75;2.95;;;12.90;99.90;;;;;;4950105;29;20443;-74
2022/11/09 09:04:24;;;;;;;13.65;2.67;;;12.90;99.90;;;;;;4952229;28;20407;-74
2022/11/09 09:06:51;;;;;;;12.95;3.28;;;13.00;99.90;;;;;;4954838;28;20059;-74
2022/11/09 09:09:17;;;;;;;14.38;3.28;;;13.00;99.90;;;;;;4937755;29;20553;-73
2022/11/09 09:11:42;;;;;;;10.32;2.90;;;13.10;99.90;;;;;;4951943;28;20043;-74
2022/11/09 09:14:08;;;;;;;11.98;2.83;;;13.10;99.90;;;;;;4941607;29;20051;-74
2022/11/09 09:16:34;;;;;;;13.68;3.00;;;13.20;99.90;;;;;;4951142;29;20055;-74
2022/11/09 09:18:59;;;;;;;13.75;2.83;;;13.30;99.90;;;;;;4943944;29;20890;-74
2022/11/09 09:21:25;;;;;;;11.63;2.83;;;13.40;99.90;;;;;;4948016;29;20483;-74
2022/11/09 09:23:51;;;;;;;12.23;2.75;;;13.50;99.90;;;;;;4952078;29;20067;-73
2022/11/09 09:26:17;;;;;;;11.80;2.65;;;13.60;99.90;;;;;;4950937;28;20058;-74
2022/11/09 09:28:43;;;;;;;12.48;2.92;;;13.70;99.90;;;;;;4951395;29;20059;-73
2022/11/09 09:31:09;;;;;;;15.18;3.13;;;13.60;99.90;;;;;;4935648;29;20071;-74
2022/11/09 09:33:35;;;;;;;11.70;2.83;;;13.60;99.90;;;;;;4965247;28;20047;-75
2022/11/09 09:36:01;;;;;;;11.40;3.00;;;13.50;99.90;;;;;;4949808;29;20502;-74
2022/11/09 09:38:28;;;;;;;12.35;2.58;;;13.50;99.90;;;;;;4945035;28;20050;-74
2022/11/09 09:40:57;;;;;;;13.52;2.80;;;13.50;99.90;;;;;;4940401;28;20059;-76
2022/11/09 09:43:40;;;;;;;13.98;2.80;;;13.60;99.90;;;;;;4947468;28;20051;-74
2022/11/09 09:46:32;;;;;;;11.43;2.85;;;13.50;99.90;;;;;;4952060;28;20043;-74
2022/11/09 09:49:03;;;;;;;15.25;3.17;;;13.50;99.90;;;;;;4940109;28;20059;-74
2022/11/09 09:51:39;;;;;;;10.27;2.92;;;13.60;99.90;;;;;;4957069;28;20493;-74
2022/11/09 09:54:25;;;;;;;14.07;3.17;;;13.60;99.90;;;;;;4960606;28;20059;-74
2022/11/09 09:56:56;;;;;;;12.88;2.88;;;13.70;99.90;;;;;;4951125;28;20358;-74
2022/11/09 09:59:31;;;;;;;15.38;2.97;;;13.60;99.90;;;;;;4968231;28;20516;-74
2022/11/09 10:01:58;;;;;;;13.00;3.20;;;13.70;99.90;;;;;;4953344;28;20392;-75
2022/11/09 10:04:44;;;;;;;12.73;3.08;;;13.70;99.90;;;;;;4937397;29;20047;-74
2022/11/09 10:07:34;;;;;;;13.32;3.10;;;13.80;99.90;;;;;;4953683;28;20147;-74
2022/11/09 10:10:29;;;;;;;13.20;2.88;;;13.80;99.90;;;;;;4954365;29;20059;-75
2022/11/09 10:13:19;;;;;;;12.50;3.03;;;13.80;99.90;;;;;;4970567;28;20106;-75
2022/11/09 10:16:05;;;;;;;12.50;2.88;;;13.80;99.90;;;;;;4969946;28;20075;-74
2022/11/09 10:18:46;;;;;;;13.57;3.15;;;13.80;99.90;;;;;;4965044;28;20391;-75
2022/11/09 10:21:23;;;;;;;13.40;3.22;;;13.80;99.90;;;;;;4969784;28;20059;-74
2022/11/09 10:24:30;;;;;;;12.15;2.58;;;13.90;99.90;;;;;;4955066;28;20077;-74
2022/11/09 10:26:58;;;;;;;11.68;3.00;;;13.90;99.90;;;;;;4988122;28;20064;-74
2022/11/09 10:29:26;;;;;;;12.05;2.85;;;13.90;99.90;;;;;;4956390;28;20487;-74
2022/11/09 10:31:56;;;;;;;14.35;3.00;;;13.90;99.90;;;;;;4956605;28;20452;-74
2022/11/09 10:34:29;;;;;;;9.30;2.95;;;14.00;99.90;;;;;;4953358;28;20440;-74
2022/11/09 10:37:00;;;;;;;14.10;3.15;;;13.90;99.90;;;;;;4966552;28;20063;-74
2022/11/09 10:39:34;;;;;;;12.27;2.92;;;14.00;99.90;;;;;;4954149;29;20055;-74
2022/11/09 10:42:00;;;;;;;11.93;2.90;;;14.10;99.90;;;;;;4951751;28;20071;-74
2022/11/09 10:44:26;;;;;;;11.10;3.08;;;14.20;99.90;;;;;;4938132;29;20047;-73
2022/11/09 10:47:25;;;;;;;10.85;2.78;;;14.20;99.90;;;;;;4954712;29;20561;-75
2022/11/09 10:50:21;;;;;;;10.85;2.97;;;14.20;99.90;;;;;;4930694;29;20064;-74
2022/11/09 10:52:47;;;;;;;10.77;2.70;;;14.20;99.90;;;;;;4961498;28;20419;-74
2022/11/09 10:55:27;;;;;;;12.07;2.78;;;14.20;99.90;;;;;;4952600;29;20461;-74
2022/11/09 10:57:57;;;;;;;11.68;2.70;;;14.30;99.90;;;;;;4954180;29;20086;-74
2022/11/09 11:00:24;;;;;;;14.07;2.80;;;14.40;99.90;;;;;;4972494;28;20395;-74
2022/11/09 11:02:51;;;;;;;11.88;2.50;;;14.40;99.90;;;;;;4954294;29;20058;-75
2022/11/09 11:05:17;;;;;;;13.27;3.08;;;14.50;99.90;;;;;;4958368;28;20050;-74
2022/11/09 11:07:43;;;;;;;14.00;2.90;;;14.50;99.90;;;;;;4950887;29;20109;-75
2022/11/09 11:10:15;;;;;;;11.95;2.80;;;14.50;99.90;;;;;;4969138;28;20047;-74
2022/11/09 11:12:43;;;;;;;13.15;2.78;;;14.50;99.90;;;;;;4953697;29;20047;-75
2022/11/09 11:15:23;;;;;;;12.77;2.75;;;14.50;99.90;;;;;;4964547;28;20043;-74
2022/11/09 11:17:49;;;;;;;12.00;2.72;;;14.40;99.90;;;;;;4953870;28;20495;-74
2022/11/09 11:20:28;;;;;;;12.50;2.78;;;14.40;99.90;;;;;;4958397;28;20059;-73
2022/11/09 11:23:20;;;;;;;11.38;2.50;;;14.40;99.90;;;;;;4980351;28;20102;-74
2022/11/09 11:25:52;;;;;;;15.18;2.88;;;14.40;99.90;;;;;;4953589;28;20407;-74
2022/11/09 11:28:59;;;;;;;11.57;2.88;;;14.40;99.90;;;;;;4954472;28;20043;-73
2022/11/09 11:31:25;;;;;;;12.63;2.60;;;14.40;99.90;;;;;;4970411;28;20058;-73
2022/11/09 11:33:50;;;;;;;12.88;2.72;;;14.40;99.90;;;;;;4954066;28;20059;-73
2022/11/09 11:36:35;;;;;;;8.55;2.33;;;14.30;99.90;;;;;;4951829;29;20047;-74
2022/11/09 11:39:18;;;;;;;12.82;2.78;;;14.30;99.90;;;;;;4969656;28;20046;-74
2022/11/09 11:42:03;;;;;;;8.75;2.35;;;14.30;99.90;;;;;;4952337;28;20051;-74
2022/11/09 11:44:47;;;;;;;12.57;2.80;;;14.30;99.90;;;;;;4953227;28;20087;-74
2022/11/09 11:47:52;;;;;;;10.90;2.72;;;14.30;99.90;;;;;;4952933;28;20094;-73
2022/11/09 11:50:24;;;;;;;11.43;2.55;;;14.20;99.90;;;;;;4962526;28;20392;-73
2022/11/09 11:52:49;;;;;;;;;;;14.10;99.90;;;;;;4960433;28;20062;-75
2022/11/09 11:55:46;;;;;;;11.82;2.55;;;14.00;99.90;;;;;;4951861;29;20302;-74
2022/11/09 11:58:12;;;;;;;10.98;2.58;;;14.00;99.90;;;;;;4950551;28;20051;-76
2022/11/09 12:00:52;;;;;;;12.55;2.80;;;14.00;99.90;;;;;;4952878;29;20050;-75
2022/11/09 12:03:41;;;;;;;10.32;2.60;;;13.90;99.90;;;;;;4951712;29;20483;-74
2022/11/09 12:06:31;;;;;;;10.77;2.67;;;13.90;99.90;;;;;;4947863;29;20106;-74
2022/11/09 12:09:28;;;;;;;10.15;2.30;;;14.00;99.90;;;;;;4951536;28;20547;-74
2022/11/09 12:12:02;;;;;;;10.75;2.50;;;13.90;99.90;;;;;;4951128;28;20063;-74
2022/11/09 12:14:56;;;;;;;10.38;2.80;;;13.90;99.90;;;;;;4952703;29;21262;-74
2022/11/09 12:17:46;;;;;;;11.02;2.55;;;13.90;99.90;;;;;;4954415;28;20496;-75
2022/11/09 12:20:37;;;;;;;11.48;2.40;;;14.00;99.90;;;;;;4948731;28;20059;-74
2022/11/09 12:23:29;;;;;;;12.15;2.45;;;14.10;99.90;;;;;;4952193;29;20492;-75
2022/11/09 12:26:27;;;;;;;12.15;2.67;;;14.10;99.90;;;;;;4965323;28;20123;-75
2022/11/09 12:29:15;;;;;;;12.77;2.58;;;14.10;99.90;;;;;;4951572;28;20514;-75
2022/11/09 12:32:35;;;;;;;13.18;2.60;;;14.10;99.90;;;;;;4970542;28;20487;-74
2022/11/09 12:35:21;;;;;;;11.48;2.55;;;14.10;99.90;;;;;;4949152;28;20126;-75
2022/11/09 12:38:09;;;;;;;10.50;2.58;;;14.10;99.90;;;;;;4952151;28;20556;-74
2022/11/09 12:41:09;;;;;;;8.43;2.50;;;14.20;99.90;;;;;;4952414;29;20047;-75
2022/11/09 12:43:59;;;;;;;11.07;2.60;;;14.20;99.90;;;;;;4956757;28;20109;-75
2022/11/09 12:46:32;;;;;;;10.35;2.60;;;14.30;99.90;;;;;;4953320;28;20122;-74
2022/11/09 12:49:03;;;;;;;13.73;2.80;;;14.40;99.90;;;;;;4950771;29;20094;-75
2022/11/09 12:51:29;;;;;;;8.07;2.15;;;14.50;99.90;;;;;;4950799;28;21246;-75
2022/11/09 12:53:56;;;;;;;10.25;2.30;;;14.50;99.90;;;;;;4966483;28;20054;-75
2022/11/09 12:56:28;;;;;;;11.10;2.55;;;14.60;99.90;;;;;;4951279;29;20046;-74